Terminal Aerodrome Forecast
Issued by NWS

Current Version | Previous Version | Text Only | Print | Product List | Glossary Off
Versions: 1 2 3 4 5 6 7 8 9 10 11 12 13 14 15 16 17 18 19 20 21 22 23 24 25 26

000
FTUS41 KPBZ 031900 AAA
TAFHLG
TAF AMD
KHLG 031913Z 0319/0418 18012KT 5SM -RA BKN015 OVC025
     FM032300 20005KT 2SM -RA BR OVC007 WS020/23045KT
     FM041200 VRB05KT 4SM -SN OVC010=

USA.gov is the U.S. government's official web portal to all federal, state and local government web resources and services.